Tokyo Maru — JG5666 — position and weather

sailwx.info

Track history (hours):
 
Tides and Currents Weather Stations Pressure Air Temp Water Temp Dewpoint Dewpoint Depression Visibility Wind Speed Wind Dir Waves Ship Positions

Tokyo Maru

Last reported at 2017-Oct-18 11:09 UTC. Time now 2017-Oct-19 02:18 UTC.
Position N 35°38' E 139°46'.

Length 40 m; draft 4 m.

Type: Tug. MMSI: 431100997.

Date/timePositionNaut miles runAvg speedWind from/ knotsBaromVisibWave heightAir tempDewpointWater temp
2017-Oct-18 11:09N 35°38' E 139°46'211.0
2017-Oct-18 10:59N 35°36' E 139°47'3 2.3
2017-Oct-18 09:49N 35°37' E 139°50'3 8.4
2017-Oct-18 09:30N 35°36' E 139°46'2 0.2
2017-Oct-17 23:12N 35°38' E 139°46'2 9.6
2017-Oct-17 23:00N 35°37' E 139°47'1 1.0
2017-Oct-17 22:30N 35°36' E 139°47'3 5.8
2017-Oct-17 22:00N 35°34' E 139°49'3 5.1
2017-Oct-17 21:30N 35°35' E 139°47'0 0.0
2017-Oct-17 21:00N 35°35' E 139°47'0 0.0
2017-Oct-17 20:30N 35°35' E 139°47'1 1.5
2017-Oct-17 19:53N 35°36' E 139°46'2 0.1
2017-Oct-16 05:36N 35°38' E 139°46'110.7
2017-Oct-16 05:29N 35°37' E 139°46'3 2.6
2017-Oct-16 04:21N 35°37' E 139°49'1 3.5
2017-Oct-16 04:00N 35°36' E 139°50'4 6.5
2017-Oct-16 03:26N 35°37' E 139°46'1 0.1
2017-Oct-15 16:57N 35°38' E 139°46'0 0.0
2017-Oct-15 16:04N 35°38' E 139°46'0 0.0
2017-Oct-15 15:59N 35°38' E 139°46'0 0.2
2017-Oct-15 13:35N 35°38' E 139°46'111.5
2017-Oct-15 13:31N 35°37' E 139°46'1 2.0
2017-Oct-15 12:57N 35°36' E 139°47'3 6.0
2017-Oct-15 12:30N 35°34' E 139°49'2 4.9
2017-Oct-15 12:00N 35°35' E 139°47'0 0.0
2017-Oct-15 11:30N 35°35' E 139°47'0 0.0
2017-Oct-15 11:00N 35°35' E 139°47'0 0.0
2017-Oct-15 10:30N 35°35' E 139°47'3 5.3
2017-Oct-15 10:00N 35°38' E 139°46'2 3.5
2017-Oct-15 09:18N 35°36' E 139°47'1 3.7
2017-Oct-15 09:00N 35°35' E 139°48'3 6.7
2017-Oct-15 08:30N 35°33' E 139°51'611.7
2017-Oct-15 08:00N 35°37' E 139°46'1 0.3
2017-Oct-15 04:22N 35°38' E 139°46'3 3.9
2017-Oct-15 03:40N 35°36' E 139°47'1 4.5
2017-Oct-15 03:29N 35°35' E 139°48'1 3.0
2017-Oct-15 03:00N 35°34' E 139°49'5 0.3
2017-Oct-14 10:07N 35°38' E 139°46'1 7.1
2017-Oct-14 09:58N 35°37' E 139°46'1 1.4
2017-Oct-14 09:21N 35°36' E 139°46'1 3.0
2017-Oct-14 08:51N 35°35' E 139°48'2 5.4
2017-Oct-14 08:31N 35°34' E 139°49'4 3.6
2017-Oct-14 07:30N 35°36' E 139°46'2 0.3
2017-Oct-14 00:32N 35°38' E 139°46'0 0.0
2017-Oct-14 00:26N 35°38' E 139°46'0 0.0
2017-Oct-13 23:57N 35°38' E 139°46'0 0.0
2017-Oct-13 23:23N 35°38' E 139°46'1 3.2
2017-Oct-13 23:00N 35°37' E 139°46'2 2.3
2017-Oct-13 22:19N 35°36' E 139°47'2 5.4
2017-Oct-13 22:00N 35°34' E 139°48'  
2017-Oct-09 23:26N 35°38' E 139°46'2 3.3
2017-Oct-09 22:45N 35°36' E 139°47'1 3.3
2017-Oct-09 22:30N 35°35' E 139°47'  
Track history (hours):
 
Tides and Currents Weather Stations Pressure Air Temp Water Temp Dewpoint Dewpoint Depression Visibility Wind Speed Wind Dir Waves Ship Positions

Tokyo Maru

Last reported at 2017-Oct-18 11:09 UTC. Time now 2017-Oct-19 02:18 UTC.
Position N 35°38' E 139°46'.

Length 40 m; draft 4 m.

Type: Tug. MMSI: 431100997.

Date/timePositionNaut miles runAvg speedWind from/ knotsBaromVisibWave heightAir tempDewpointWater temp
2017-Oct-18 11:09N 35°38' E 139°46'211.0
2017-Oct-18 10:59N 35°36' E 139°47'3 2.3
2017-Oct-18 09:49N 35°37' E 139°50'3 8.4
2017-Oct-18 09:30N 35°36' E 139°46'2 0.2
2017-Oct-17 23:12N 35°38' E 139°46'2 9.6
2017-Oct-17 23:00N 35°37' E 139°47'1 1.0
2017-Oct-17 22:30N 35°36' E 139°47'3 5.8
2017-Oct-17 22:00N 35°34' E 139°49'3 5.1
2017-Oct-17 21:30N 35°35' E 139°47'0 0.0
2017-Oct-17 21:00N 35°35' E 139°47'0 0.0
2017-Oct-17 20:30N 35°35' E 139°47'1 1.5
2017-Oct-17 19:53N 35°36' E 139°46'2 0.1
2017-Oct-16 05:36N 35°38' E 139°46'110.7
2017-Oct-16 05:29N 35°37' E 139°46'3 2.6
2017-Oct-16 04:21N 35°37' E 139°49'1 3.5
2017-Oct-16 04:00N 35°36' E 139°50'4 6.5
2017-Oct-16 03:26N 35°37' E 139°46'1 0.1
2017-Oct-15 16:57N 35°38' E 139°46'0 0.0
2017-Oct-15 16:04N 35°38' E 139°46'0 0.0
2017-Oct-15 15:59N 35°38' E 139°46'0 0.2
2017-Oct-15 13:35N 35°38' E 139°46'111.5
2017-Oct-15 13:31N 35°37' E 139°46'1 2.0
2017-Oct-15 12:57N 35°36' E 139°47'3 6.0
2017-Oct-15 12:30N 35°34' E 139°49'2 4.9
2017-Oct-15 12:00N 35°35' E 139°47'0 0.0
2017-Oct-15 11:30N 35°35' E 139°47'0 0.0
2017-Oct-15 11:00N 35°35' E 139°47'0 0.0
2017-Oct-15 10:30N 35°35' E 139°47'3 5.3
2017-Oct-15 10:00N 35°38' E 139°46'2 3.5
2017-Oct-15 09:18N 35°36' E 139°47'1 3.7
2017-Oct-15 09:00N 35°35' E 139°48'3 6.7
2017-Oct-15 08:30N 35°33' E 139°51'611.7
2017-Oct-15 08:00N 35°37' E 139°46'1 0.3
2017-Oct-15 04:22N 35°38' E 139°46'3 3.9
2017-Oct-15 03:40N 35°36' E 139°47'1 4.5
2017-Oct-15 03:29N 35°35' E 139°48'1 3.0
2017-Oct-15 03:00N 35°34' E 139°49'5 0.3
2017-Oct-14 10:07N 35°38' E 139°46'1 7.1
2017-Oct-14 09:58N 35°37' E 139°46'1 1.4
2017-Oct-14 09:21N 35°36' E 139°46'1 3.0
2017-Oct-14 08:51N 35°35' E 139°48'2 5.4
2017-Oct-14 08:31N 35°34' E 139°49'4 3.6
2017-Oct-14 07:30N 35°36' E 139°46'2 0.3
2017-Oct-14 00:32N 35°38' E 139°46'0 0.0
2017-Oct-14 00:26N 35°38' E 139°46'0 0.0
2017-Oct-13 23:57N 35°38' E 139°46'0 0.0
2017-Oct-13 23:23N 35°38' E 139°46'1 3.2
2017-Oct-13 23:00N 35°37' E 139°46'2 2.3
2017-Oct-13 22:19N 35°36' E 139°47'2 5.4
2017-Oct-13 22:00N 35°34' E 139°48'  
2017-Oct-09 23:26N 35°38' E 139°46'2 3.3
2017-Oct-09 22:45N 35°36' E 139°47'1 3.3
2017-Oct-09 22:30N 35°35' E 139°47'  

Dump ship's entire track history